createdAt,value
2019-01-19T00:01:46.350Z,13.10
2019-01-19T00:04:49.772Z,13.73
2019-01-19T00:07:43.300Z,13.27
2019-01-19T00:10:25.439Z,13.17
2019-01-19T00:13:19.226Z,11.87
2019-01-19T00:16:25.425Z,13.03
2019-01-19T00:19:44.706Z,12.97
2019-01-19T00:22:47.296Z,13.63
2019-01-19T00:25:59.021Z,13.10
2019-01-19T00:28:37.890Z,12.60
2019-01-19T00:31:31.824Z,13.33
2019-01-19T00:34:08.051Z,12.50
2019-01-19T00:36:46.963Z,11.93
2019-01-19T00:39:34.980Z,12.10
2019-01-19T00:42:16.959Z,13.73
2019-01-19T00:45:14.033Z,12.90
2019-01-19T00:48:10.614Z,12.37
2019-01-19T00:50:55.792Z,12.70
2019-01-19T00:53:47.142Z,12.70
2019-01-19T00:56:50.360Z,12.83
2019-01-19T00:59:26.790Z,12.33
2019-01-19T01:02:27.206Z,12.83
2019-01-19T01:05:08.906Z,12.70
2019-01-19T01:08:11.958Z,12.73
2019-01-19T01:10:59.246Z,12.13
2019-01-19T01:13:44.168Z,12.87
2019-01-19T01:16:50.052Z,13.13
2019-01-19T01:19:31.863Z,12.27
2019-01-19T01:22:25.417Z,13.03
2019-01-19T01:25:16.218Z,13.13
2019-01-19T01:27:57.892Z,14.23
2019-01-19T01:30:42.638Z,14.00
2019-01-19T01:33:30.666Z,14.40
2019-01-19T01:36:30.491Z,13.63
2019-01-19T01:39:24.484Z,13.80
2019-01-19T01:42:34.224Z,13.17
2019-01-19T01:45:32.679Z,13.90
2019-01-19T01:48:37.039Z,13.83
2019-01-19T01:51:21.646Z,13.83
2019-01-19T01:54:23.312Z,13.67
2019-01-19T01:56:58.328Z,13.20
2019-01-19T02:00:01.378Z,14.53
2019-01-19T02:02:43.421Z,12.97
2019-01-19T02:05:19.620Z,13.40
2019-01-19T02:08:05.004Z,14.63
2019-01-19T02:10:53.054Z,13.93
2019-01-19T02:13:51.561Z,12.47
2019-01-19T02:16:49.198Z,13.37
2019-01-19T02:19:36.678Z,13.83
2019-01-19T02:22:24.815Z,12.97
2019-01-19T02:25:37.894Z,14.27
2019-01-19T02:28:23.034Z,13.57
2019-01-19T02:31:11.277Z,14.73
2019-01-19T02:34:01.928Z,14.43
2019-01-19T02:36:57.979Z,14.30
2019-01-19T02:39:49.176Z,14.57
2019-01-19T02:42:43.336Z,15.77
2019-01-19T02:45:52.891Z,13.47
2019-01-19T02:48:45.474Z,14.10
2019-01-19T02:51:40.938Z,15.50
2019-01-19T02:54:23.075Z,14.47
2019-01-19T02:57:14.264Z,14.80
2019-01-19T02:59:59.195Z,13.97
2019-01-19T03:02:46.807Z,13.87
2019-01-19T03:05:25.916Z,12.47
2019-01-19T03:08:21.660Z,13.40
2019-01-19T03:11:15.711Z,13.73
2019-01-19T03:14:36.811Z,13.90
2019-01-19T03:17:18.642Z,13.90
2019-01-19T03:20:14.288Z,14.77
2019-01-19T03:22:59.193Z,14.10
2019-01-19T03:26:14.558Z,14.37
2019-01-19T03:29:02.501Z,13.83
2019-01-19T03:32:07.485Z,15.17
2019-01-19T03:35:06.439Z,14.37
2019-01-19T03:37:54.130Z,14.83
2019-01-19T03:40:50.915Z,15.63
2019-01-19T03:43:41.408Z,14.40
2019-01-19T03:46:44.904Z,14.53
2019-01-19T03:50:01.661Z,16.23
2019-01-19T03:52:46.674Z,15.43
2019-01-19T03:55:48.544Z,15.80
2019-01-19T03:58:36.420Z,15.50
2019-01-19T04:01:15.636Z,15.40
2019-01-19T04:03:57.089Z,16.30
2019-01-19T04:06:39.282Z,16.00
2019-01-19T04:09:30.255Z,15.77
2019-01-19T04:12:21.209Z,14.73
2019-01-19T04:15:03.467Z,14.60
2019-01-19T04:17:48.307Z,14.60
2019-01-19T04:20:58.614Z,15.50
2019-01-19T04:23:29.929Z,15.93
2019-01-19T04:26:03.455Z,15.13
2019-01-19T04:28:34.931Z,16.60
2019-01-19T04:31:06.248Z,15.17
2019-01-19T04:33:37.894Z,15.57
2019-01-19T04:36:10.722Z,14.30
2019-01-19T04:38:42.119Z,14.67
2019-01-19T04:41:13.422Z,14.47
2019-01-19T04:43:45.050Z,14.60
2019-01-19T04:46:16.370Z,14.77
2019-01-19T04:48:48.228Z,13.50
2019-01-19T04:51:19.565Z,14.70
2019-01-19T04:53:50.916Z,14.93
2019-01-19T04:56:22.603Z,14.93
2019-01-19T04:58:53.979Z,15.17
2019-01-19T05:01:25.309Z,15.20
2019-01-19T05:03:56.607Z,14.40
2019-01-19T05:06:30.650Z,12.77
2019-01-19T05:09:00.999Z,13.40
2019-01-19T05:11:32.309Z,13.10
2019-01-19T05:14:03.624Z,14.83
2019-01-19T05:16:34.942Z,13.87
2019-01-19T05:19:06.246Z,13.83
2019-01-19T05:21:37.616Z,13.87
2019-01-19T05:24:08.932Z,13.57
2019-01-19T05:26:40.256Z,15.07
2019-01-19T05:29:11.560Z,14.50
2019-01-19T05:31:42.884Z,15.63
2019-01-19T05:34:14.193Z,15.40
2019-01-19T05:36:46.237Z,15.37
2019-01-19T05:39:17.535Z,15.10
2019-01-19T05:41:48.853Z,15.83
2019-01-19T05:44:20.489Z,15.47
2019-01-19T05:46:52.146Z,14.87
2019-01-19T05:49:23.464Z,15.43
2019-01-19T05:51:56.429Z,14.43
2019-01-19T05:54:27.842Z,14.80
2019-01-19T05:56:59.138Z,14.67
2019-01-19T05:59:30.474Z,15.23
2019-01-19T06:02:01.847Z,15.00
2019-01-19T06:04:33.173Z,14.57
2019-01-19T06:07:04.484Z,16.57
2019-01-19T06:09:35.796Z,16.97
2019-01-19T06:12:07.116Z,15.80
2019-01-19T06:14:38.429Z,16.53
2019-01-19T06:17:09.745Z,16.37
2019-01-19T06:19:41.890Z,17.63
2019-01-19T06:22:13.870Z,16.63
2019-01-19T06:24:45.177Z,18.47
2019-01-19T06:27:16.623Z,16.40
2019-01-19T06:29:47.923Z,17.73
2019-01-19T06:32:19.239Z,16.53
2019-01-19T06:34:50.571Z,17.00
2019-01-19T06:37:22.612Z,17.37
2019-01-19T06:39:53.926Z,17.33
2019-01-19T06:42:25.220Z,16.67
2019-01-19T06:44:56.538Z,16.07
2019-01-19T06:47:27.840Z,17.93
2019-01-19T06:49:59.154Z,18.13
2019-01-19T06:52:30.454Z,18.37
2019-01-19T06:55:01.842Z,17.17
2019-01-19T06:57:33.151Z,17.40
2019-01-19T07:00:08.135Z,17.77
2019-01-19T07:02:39.432Z,17.77
2019-01-19T07:05:10.838Z,19.43
2019-01-19T07:07:42.208Z,20.47
2019-01-19T07:10:20.486Z,21.57
2019-01-19T07:12:52.158Z,21.87
2019-01-19T07:15:23.470Z,21.10
2019-01-19T07:17:54.839Z,22.07
2019-01-19T07:20:30.866Z,19.00
2019-01-19T07:23:02.215Z,21.53
2019-01-19T07:25:33.553Z,18.30
2019-01-19T07:28:05.164Z,21.97
2019-01-19T07:30:36.496Z,23.30
2019-01-19T07:33:07.803Z,24.60
2019-01-19T07:35:39.105Z,24.30
2019-01-19T07:38:10.775Z,24.13
2019-01-19T07:40:42.451Z,23.20
2019-01-19T07:43:14.233Z,23.83
2019-01-19T07:45:45.623Z,23.50
2019-01-19T07:48:17.612Z,24.97
2019-01-19T07:50:48.991Z,23.93
2019-01-19T07:53:20.306Z,24.87
2019-01-19T07:55:51.628Z,24.53
2019-01-19T07:58:23.202Z,24.07
2019-01-19T08:00:54.693Z,25.47
2019-01-19T08:03:26.315Z,24.90
2019-01-19T08:05:57.655Z,26.60
2019-01-19T08:08:28.956Z,26.73
2019-01-19T08:11:00.259Z,28.97
2019-01-19T08:13:31.587Z,25.83
2019-01-19T08:16:02.900Z,26.10
2019-01-19T08:18:34.220Z,26.77
2019-01-19T08:21:05.524Z,24.77
2019-01-19T08:23:36.851Z,25.80
2019-01-19T08:26:08.162Z,27.40
2019-01-19T08:28:39.470Z,25.70
2019-01-19T08:31:10.771Z,23.90
2019-01-19T08:33:42.104Z,22.77
2019-01-19T08:36:13.893Z,25.27
2019-01-19T08:38:45.187Z,25.60
2019-01-19T08:41:16.515Z,26.37
2019-01-19T08:43:49.692Z,27.80
2019-01-19T08:46:21.097Z,27.33
2019-01-19T08:48:52.394Z,26.37
2019-01-19T08:51:23.718Z,25.77
2019-01-19T08:53:55.339Z,26.97
2019-01-19T08:56:26.648Z,26.57
2019-01-19T08:58:57.953Z,26.03
2019-01-19T09:01:29.254Z,27.40
2019-01-19T09:04:00.586Z,25.67
2019-01-19T09:06:31.894Z,25.03
2019-01-19T09:09:04.400Z,27.30
2019-01-19T09:11:35.771Z,25.70
2019-01-19T09:14:07.089Z,26.83
2019-01-19T09:16:40.553Z,25.33
2019-01-19T09:19:11.472Z,26.37
2019-01-19T09:21:42.801Z,24.10
2019-01-19T09:24:14.805Z,22.47
2019-01-19T09:26:46.129Z,25.17
2019-01-19T09:29:17.455Z,24.37
2019-01-19T09:31:48.762Z,24.10
2019-01-19T09:34:20.076Z,23.53
2019-01-19T09:36:51.662Z,24.50
2019-01-19T09:39:22.977Z,24.37
2019-01-19T09:41:54.298Z,27.33
2019-01-19T09:44:25.617Z,27.83
2019-01-19T09:46:56.927Z,26.60
2019-01-19T09:49:28.231Z,27.40
2019-01-19T09:51:59.855Z,26.73
2019-01-19T09:54:31.170Z,26.53
2019-01-19T09:57:02.863Z,24.73
2019-01-19T09:59:34.158Z,24.63
2019-01-19T10:02:05.472Z,27.90
2019-01-19T10:04:36.858Z,26.30
2019-01-19T10:07:08.567Z,25.90
2019-01-19T10:09:40.225Z,26.67
2019-01-19T10:12:11.537Z,27.43
2019-01-19T10:14:42.848Z,29.47
2019-01-19T10:17:14.177Z,28.97
2019-01-19T10:19:45.851Z,28.03
2019-01-19T10:22:17.183Z,26.43
2019-01-19T10:24:48.485Z,27.20
2019-01-19T10:27:20.077Z,26.10
2019-01-19T10:29:51.381Z,26.70
2019-01-19T10:32:22.980Z,25.90
2019-01-19T10:34:54.287Z,22.73
2019-01-19T10:37:25.643Z,22.90
2019-01-19T10:39:56.908Z,22.80
2019-01-19T10:42:28.212Z,23.93
2019-01-19T10:44:59.528Z,23.67
2019-01-19T10:47:30.832Z,24.10
2019-01-19T10:50:02.438Z,23.57
2019-01-19T10:52:33.735Z,21.87
2019-01-19T10:55:07.297Z,23.97
2019-01-19T10:57:38.609Z,24.17
2019-01-19T11:00:34.559Z,41.57
2019-01-19T11:03:05.857Z,25.23
2019-01-19T11:05:37.177Z,22.53
2019-01-19T11:08:10.069Z,22.40
2019-01-19T11:10:41.497Z,21.53
2019-01-19T11:13:12.792Z,20.73
2019-01-19T11:15:44.111Z,22.40
2019-01-19T11:18:15.793Z,22.63
2019-01-19T11:20:47.101Z,22.67
2019-01-19T11:23:18.396Z,23.20
2019-01-19T11:25:49.713Z,23.10
2019-01-19T11:28:21.085Z,24.20
2019-01-19T11:30:52.804Z,21.83
2019-01-19T11:33:24.103Z,23.50
2019-01-19T11:35:55.495Z,20.67
2019-01-19T11:38:26.795Z,23.57
2019-01-19T11:40:58.181Z,22.50
2019-01-19T11:43:29.503Z,21.23
2019-01-19T11:46:00.799Z,21.20
2019-01-19T11:48:32.119Z,21.20
2019-01-19T11:51:03.414Z,22.47
2019-01-19T11:53:34.737Z,21.67
2019-01-19T11:56:12.118Z,20.77
2019-01-19T11:58:39.483Z,22.17
2019-01-19T12:01:10.819Z,21.43
2019-01-19T12:03:42.121Z,18.80
2019-01-19T12:06:13.450Z,18.90
2019-01-19T12:08:44.747Z,19.23
2019-01-19T12:11:16.070Z,19.13
2019-01-19T12:13:47.507Z,18.73
2019-01-19T12:16:18.830Z,18.37
2019-01-19T12:18:50.198Z,18.70
2019-01-19T12:21:21.587Z,18.20
2019-01-19T12:23:52.962Z,18.90
2019-01-19T12:26:24.331Z,20.20
2019-01-19T12:28:55.682Z,19.70
2019-01-19T12:31:27.020Z,20.73
2019-01-19T12:33:58.611Z,19.33
2019-01-19T12:36:30.010Z,19.33
2019-01-19T12:39:02.099Z,19.80
2019-01-19T12:41:33.468Z,19.20
2019-01-19T12:44:05.374Z,19.07
2019-01-19T12:46:36.679Z,19.57
2019-01-19T12:49:08.087Z,17.57
2019-01-19T12:51:39.384Z,18.93
2019-01-19T12:54:10.709Z,19.23
2019-01-19T12:56:42.039Z,17.30
2019-01-19T12:59:13.400Z,17.40
2019-01-19T13:01:44.704Z,17.50
2019-01-19T13:04:16.008Z,18.83
2019-01-19T13:06:48.576Z,16.93
2019-01-19T13:09:19.872Z,17.30
2019-01-19T13:12:10.983Z,17.83
2019-01-19T13:14:47.179Z,17.30
2019-01-19T13:17:34.715Z,18.33
2019-01-19T13:20:32.021Z,18.77
2019-01-19T13:23:30.590Z,18.53
2019-01-19T13:26:36.928Z,18.93
2019-01-19T13:29:44.760Z,18.23
2019-01-19T13:32:30.240Z,18.93
2019-01-19T13:35:22.715Z,18.47
2019-01-19T13:38:45.964Z,17.33
2019-01-19T13:41:53.950Z,18.77
2019-01-19T13:45:05.757Z,15.57
2019-01-19T13:47:57.135Z,15.80
2019-01-19T13:50:41.846Z,18.87
2019-01-19T13:53:50.549Z,18.67
2019-01-19T13:56:35.397Z,19.67
2019-01-19T14:00:00.126Z,20.17
2019-01-19T14:03:06.065Z,19.83
2019-01-19T14:05:54.148Z,18.70
2019-01-19T14:09:02.321Z,17.83
2019-01-19T14:11:58.588Z,20.87
2019-01-19T14:15:12.615Z,19.03
2019-01-19T14:17:51.943Z,19.50
2019-01-19T14:21:04.271Z,19.83
2019-01-19T14:23:49.733Z,20.43
2019-01-19T14:26:47.091Z,22.67
2019-01-19T14:29:50.386Z,22.43
2019-01-19T14:32:44.638Z,21.53
2019-01-19T14:35:43.387Z,22.57
2019-01-19T14:38:44.795Z,21.07
2019-01-19T14:41:37.647Z,23.37
2019-01-19T14:44:43.700Z,23.63
2019-01-19T14:47:37.932Z,24.13
2019-01-19T14:50:44.157Z,21.70
2019-01-19T14:53:38.300Z,21.93
2019-01-19T14:56:33.686Z,23.30
2019-01-19T14:59:24.908Z,23.93
2019-01-19T15:02:13.032Z,22.10
2019-01-19T15:04:49.241Z,22.83
2019-01-19T15:07:37.433Z,22.13
2019-01-19T15:10:34.708Z,20.73
2019-01-19T15:13:29.958Z,20.77
2019-01-19T15:16:15.063Z,22.47
2019-01-19T15:18:54.184Z,22.53
2019-01-19T15:21:39.190Z,24.13
2019-01-19T15:24:33.596Z,23.67
2019-01-19T15:27:30.953Z,23.87
2019-01-19T15:30:40.402Z,23.27
2019-01-19T15:33:27.950Z,22.17
2019-01-19T15:36:35.247Z,23.50
2019-01-19T15:39:29.511Z,23.77
2019-01-19T15:42:38.475Z,23.50
2019-01-19T15:45:29.959Z,23.90
2019-01-19T15:48:20.909Z,24.53
2019-01-19T15:51:12.287Z,22.07
2019-01-19T15:53:48.467Z,22.27
2019-01-19T15:56:39.152Z,26.03
2019-01-19T15:59:23.966Z,24.13
2019-01-19T16:02:25.550Z,24.43
2019-01-19T16:05:32.358Z,22.73
2019-01-19T16:08:31.117Z,23.03
2019-01-19T16:11:13.062Z,22.77
2019-01-19T16:14:12.046Z,22.47
2019-01-19T16:16:48.242Z,22.10
2019-01-19T16:19:36.497Z,20.73
2019-01-19T16:22:33.537Z,21.67
2019-01-19T16:25:39.674Z,22.67
2019-01-19T16:28:40.443Z,20.87
2019-01-19T16:31:34.512Z,21.63
2019-01-19T16:34:47.962Z,23.77
2019-01-19T16:37:40.499Z,23.33
2019-01-19T16:40:39.011Z,26.43
2019-01-19T16:43:21.073Z,23.67
2019-01-19T16:46:15.869Z,24.07
2019-01-19T16:49:15.980Z,22.17
2019-01-19T16:52:22.419Z,23.63
2019-01-19T16:55:03.971Z,24.33
2019-01-19T16:57:45.681Z,24.00
2019-01-19T17:00:36.911Z,20.60
2019-01-19T17:03:31.938Z,22.77
2019-01-19T17:06:19.902Z,23.73
2019-01-19T17:09:07.965Z,23.20
2019-01-19T17:12:08.573Z,23.20
2019-01-19T17:14:59.619Z,25.40
2019-01-19T17:18:07.725Z,22.97
2019-01-19T17:21:19.931Z,22.40
2019-01-19T17:24:04.822Z,21.80
2019-01-19T17:27:14.154Z,23.80
2019-01-19T17:30:08.515Z,22.43
2019-01-19T17:32:53.324Z,25.20
2019-01-19T17:35:41.618Z,23.57
2019-01-19T17:38:26.966Z,22.67
2019-01-19T17:41:31.725Z,23.13
2019-01-19T17:44:30.573Z,21.67
2019-01-19T17:47:23.783Z,24.20
2019-01-19T17:50:02.685Z,23.33
2019-01-19T17:52:53.682Z,25.47
2019-01-19T17:55:57.402Z,24.30
2019-01-19T17:58:51.719Z,25.40
2019-01-19T18:01:36.284Z,24.20
2019-01-19T18:04:33.566Z,24.57
2019-01-19T18:07:32.639Z,20.57
2019-01-19T18:10:37.307Z,22.30
2019-01-19T18:13:13.535Z,23.90
2019-01-19T18:16:01.506Z,23.43
2019-01-19T18:19:07.520Z,25.33
2019-01-19T18:21:55.378Z,24.27
2019-01-19T18:24:37.304Z,23.57
2019-01-19T18:27:22.104Z,20.37
2019-01-19T18:30:22.558Z,21.23
2019-01-19T18:33:04.333Z,20.33
2019-01-19T18:36:07.536Z,20.10
2019-01-19T18:38:52.965Z,19.60
2019-01-19T18:41:34.866Z,22.27
2019-01-19T18:44:45.792Z,19.57
2019-01-19T18:47:42.455Z,22.73
2019-01-19T18:50:54.837Z,20.90
2019-01-19T18:53:48.823Z,21.47
2019-01-19T18:56:52.649Z,21.50
2019-01-19T18:59:37.840Z,21.63
2019-01-19T19:02:34.580Z,19.83
2019-01-19T19:05:22.412Z,21.57
2019-01-19T19:08:01.435Z,17.57
2019-01-19T19:11:16.912Z,22.50
2019-01-19T19:14:01.467Z,22.23
2019-01-19T19:16:56.993Z,20.23
2019-01-19T19:19:44.965Z,21.47
2019-01-19T19:22:26.829Z,21.40
2019-01-19T19:25:17.926Z,20.60
2019-01-19T19:28:12.330Z,20.17
2019-01-19T19:31:11.020Z,19.80
2019-01-19T19:33:50.319Z,17.77
2019-01-19T19:37:02.358Z,17.97
2019-01-19T19:39:50.235Z,15.03
2019-01-19T19:42:47.542Z,15.53
2019-01-19T19:45:38.743Z,16.60
2019-01-19T19:48:22.532Z,17.20
2019-01-19T19:51:07.045Z,18.73
2019-01-19T19:53:38.383Z,18.57
2019-01-19T19:56:08.317Z,19.13
2019-01-19T19:58:39.642Z,19.57
2019-01-19T20:01:11.018Z,19.73
2019-01-19T20:03:42.336Z,18.70
2019-01-19T20:06:14.485Z,19.63
2019-01-19T20:08:45.802Z,17.43
2019-01-19T20:11:17.449Z,16.33
2019-01-19T20:13:48.758Z,15.00
2019-01-19T20:16:20.063Z,15.33
2019-01-19T20:18:51.370Z,15.00
2019-01-19T20:21:23.516Z,13.33
2019-01-19T20:23:54.816Z,16.13
2019-01-19T20:26:26.120Z,14.77
2019-01-19T20:28:57.417Z,14.50
2019-01-19T20:31:28.747Z,15.30
2019-01-19T20:34:00.061Z,14.40
2019-01-19T20:36:31.659Z,16.03
2019-01-19T20:39:02.975Z,15.30
2019-01-19T20:41:34.308Z,16.73
2019-01-19T20:44:05.879Z,16.37
2019-01-19T20:46:37.468Z,15.60
2019-01-19T20:49:08.902Z,15.70
2019-01-19T20:51:40.293Z,16.13
2019-01-19T20:54:11.913Z,14.10
2019-01-19T20:56:43.231Z,15.43
2019-01-19T20:59:14.614Z,14.83
2019-01-19T21:01:45.915Z,15.10
2019-01-19T21:04:18.638Z,15.23
2019-01-19T21:06:50.025Z,16.30
2019-01-19T21:09:21.324Z,14.17
2019-01-19T21:11:52.659Z,14.00
2019-01-19T21:14:23.972Z,14.10
2019-01-19T21:16:55.285Z,16.73
2019-01-19T21:19:26.601Z,15.67
2019-01-19T21:21:57.910Z,15.87
2019-01-19T21:24:29.234Z,14.60
2019-01-19T21:27:00.536Z,14.80
2019-01-19T21:29:31.888Z,15.40
2019-01-19T21:32:03.179Z,14.23
2019-01-19T21:34:34.516Z,14.93
2019-01-19T21:37:06.203Z,13.93
2019-01-19T21:39:37.517Z,14.17
2019-01-19T21:42:08.828Z,13.73
2019-01-19T21:44:40.148Z,13.00
2019-01-19T21:47:11.460Z,12.10
2019-01-19T21:49:42.767Z,12.20
2019-01-19T21:52:14.089Z,13.00
2019-01-19T21:54:45.388Z,12.93
2019-01-19T21:57:16.706Z,12.40
2019-01-19T21:59:48.003Z,11.33
2019-01-19T22:02:19.487Z,12.90
2019-01-19T22:04:50.856Z,11.67
2019-01-19T22:07:22.165Z,12.70
2019-01-19T22:09:53.840Z,12.30
2019-01-19T22:12:25.157Z,14.83
2019-01-19T22:14:56.842Z,13.50
2019-01-19T22:17:28.142Z,12.87
2019-01-19T22:19:59.458Z,11.80
2019-01-19T22:22:30.793Z,12.43
2019-01-19T22:25:02.344Z,13.70
2019-01-19T22:27:34.342Z,11.60
2019-01-19T22:30:13.601Z,11.17
2019-01-19T22:32:44.916Z,12.37
2019-01-19T22:35:16.216Z,11.87
2019-01-19T22:37:47.526Z,11.10
2019-01-19T22:40:19.555Z,12.13
2019-01-19T22:42:52.608Z,10.97
2019-01-19T22:45:23.918Z,11.73
2019-01-19T22:47:55.293Z,11.13
2019-01-19T22:50:27.020Z,10.67
2019-01-19T22:52:58.328Z,10.50
2019-01-19T22:55:30.278Z,9.50
2019-01-19T22:58:01.578Z,10.77
2019-01-19T23:00:57.369Z,9.60
2019-01-19T23:03:30.884Z,8.23
2019-01-19T23:06:02.443Z,8.90
2019-01-19T23:08:33.924Z,7.97
2019-01-19T23:11:05.584Z,8.90
2019-01-19T23:13:36.928Z,8.63
2019-01-19T23:16:08.792Z,7.80
2019-01-19T23:18:40.111Z,7.00
2019-01-19T23:21:11.475Z,8.40
2019-01-19T23:23:42.804Z,8.57
2019-01-19T23:26:14.574Z,8.60
2019-01-19T23:28:45.952Z,8.13
2019-01-19T23:31:17.256Z,7.80
2019-01-19T23:33:48.556Z,8.97
2019-01-19T23:36:19.858Z,8.30
2019-01-19T23:38:51.156Z,8.00
2019-01-19T23:41:22.462Z,7.77
2019-01-19T23:43:53.765Z,8.00
2019-01-19T23:46:25.146Z,8.47
2019-01-19T23:48:56.509Z,8.83
2019-01-19T23:51:27.830Z,8.27
2019-01-19T23:53:59.119Z,8.23
2019-01-19T23:56:30.428Z,7.83
2019-01-19T23:59:01.741Z,7.83
